createdAt,value
2023-03-18T00:02:15.633Z,256.98
2023-03-18T00:04:42.649Z,269.98
2023-03-18T00:07:10.593Z,254.32
2023-03-18T00:09:38.847Z,266.83
2023-03-18T00:12:06.614Z,258.30
2023-03-18T00:14:36.612Z,257.13
2023-03-18T00:17:04.318Z,256.10
2023-03-18T00:19:33.302Z,282.35
2023-03-18T00:22:00.483Z,250.90
2023-03-18T00:24:28.364Z,252.70
2023-03-18T00:26:56.093Z,253.98
2023-03-18T00:29:25.067Z,253.27
2023-03-18T00:31:52.480Z,256.95
2023-03-18T00:34:21.072Z,251.75
2023-03-18T00:36:51.198Z,264.40
2023-03-18T00:39:21.708Z,257.45
2023-03-18T00:41:48.714Z,252.43
2023-03-18T00:44:15.759Z,257.45
2023-03-18T00:46:43.561Z,257.98
2023-03-18T00:49:11.076Z,259.92
2023-03-18T00:51:39.673Z,251.23
2023-03-18T00:54:10.578Z,259.85
2023-03-18T00:56:38.755Z,245.57
2023-03-18T00:59:08.078Z,247.43
2023-03-18T01:01:36.743Z,256.48
2023-03-18T01:04:04.601Z,255.60
2023-03-18T01:06:35.208Z,253.95
2023-03-18T01:09:05.160Z,243.02
2023-03-18T01:11:33.446Z,250.80
2023-03-18T01:14:01.144Z,252.55
2023-03-18T01:16:29.850Z,244.45
2023-03-18T01:18:57.458Z,240.90
2023-03-18T01:21:25.582Z,251.57
2023-03-18T01:23:53.439Z,260.27
2023-03-18T01:26:20.911Z,255.13
2023-03-18T01:28:48.137Z,263.02
2023-03-18T01:31:15.761Z,261.35
2023-03-18T01:33:42.804Z,267.13
2023-03-18T01:36:10.671Z,256.00
2023-03-18T01:38:38.543Z,270.60
2023-03-18T01:41:05.577Z,277.98
2023-03-18T01:43:38.885Z,260.90
2023-03-18T01:46:42.882Z,286.00
2023-03-18T01:49:17.700Z,253.38
2023-03-18T01:51:55.146Z,271.40
2023-03-18T01:54:24.898Z,265.90
2023-03-18T01:56:54.252Z,278.17
2023-03-18T01:59:26.512Z,273.55
2023-03-18T02:02:01.383Z,271.42
2023-03-18T02:04:36.550Z,265.88
2023-03-18T02:07:05.310Z,263.67
2023-03-18T02:09:32.312Z,288.58
2023-03-18T02:12:02.017Z,342.25
2023-03-18T02:14:29.146Z,344.40
2023-03-18T02:17:17.767Z,273.23
2023-03-18T02:19:50.379Z,271.90
2023-03-18T02:22:32.165Z,271.08
2023-03-18T02:25:39.799Z,267.25
2023-03-18T02:28:14.543Z,262.15
2023-03-18T02:30:47.635Z,268.17
2023-03-18T02:33:17.450Z,263.60
2023-03-18T02:35:54.805Z,268.85
2023-03-18T02:38:21.916Z,271.40
2023-03-18T02:40:49.452Z,266.35
2023-03-18T02:43:32.603Z,271.73
2023-03-18T02:46:48.155Z,270.13
2023-03-18T02:49:17.128Z,268.50
2023-03-18T02:51:44.789Z,269.90
2023-03-18T02:54:16.864Z,271.02
2023-03-18T02:56:44.904Z,276.73
2023-03-18T02:59:13.225Z,268.33
2023-03-18T03:01:43.459Z,271.45
2023-03-18T03:04:12.570Z,269.70
2023-03-18T03:06:40.732Z,269.65
2023-03-18T03:09:11.815Z,270.48
2023-03-18T03:11:38.792Z,266.70
2023-03-18T03:14:05.860Z,274.65
2023-03-18T03:16:33.039Z,277.00
2023-03-18T03:19:00.109Z,267.45
2023-03-18T03:21:27.775Z,272.05
2023-03-18T03:23:54.851Z,290.40
2023-03-18T03:26:22.242Z,267.63
2023-03-18T03:28:49.547Z,264.05
2023-03-18T03:31:17.506Z,261.27
2023-03-18T03:33:44.887Z,282.15
2023-03-18T03:36:15.562Z,289.90
2023-03-18T03:38:43.585Z,264.80
2023-03-18T03:41:12.576Z,255.52
2023-03-18T03:43:40.751Z,258.92
2023-03-18T03:46:09.532Z,254.35
2023-03-18T03:48:38.370Z,257.90
2023-03-18T03:51:05.980Z,265.75
2023-03-18T03:53:34.161Z,261.35
2023-03-18T03:56:01.593Z,255.57
2023-03-18T03:58:29.161Z,270.45
2023-03-18T04:00:56.498Z,263.40
2023-03-18T04:03:23.865Z,266.17
2023-03-18T04:05:50.852Z,264.48
2023-03-18T04:08:17.894Z,255.50
2023-03-18T04:10:44.961Z,266.33
2023-03-18T04:13:11.959Z,278.73
2023-03-18T04:15:39.201Z,250.80
2023-03-18T04:18:07.274Z,256.40
2023-03-18T04:20:39.313Z,258.45
2023-03-18T04:23:07.476Z,246.68
2023-03-18T04:25:35.379Z,252.82
2023-03-18T04:28:03.100Z,255.32
2023-03-18T04:30:30.777Z,257.83
2023-03-18T04:32:59.790Z,244.43
2023-03-18T04:35:28.418Z,241.02
2023-03-18T04:37:55.442Z,253.50
2023-03-18T04:40:22.526Z,249.55
2023-03-18T04:42:49.503Z,250.68
2023-03-18T04:45:17.792Z,243.23
2023-03-18T04:47:45.929Z,257.70
2023-03-18T04:50:15.203Z,245.98
2023-03-18T04:52:45.099Z,244.15
2023-03-18T04:55:20.667Z,248.63
2023-03-18T04:57:48.788Z,243.23
2023-03-18T05:00:23.675Z,244.55
2023-03-18T05:02:51.041Z,250.80
2023-03-18T05:05:18.596Z,232.40
2023-03-18T05:07:45.647Z,230.25
2023-03-18T05:10:13.600Z,238.32
2023-03-18T05:12:40.763Z,234.63
2023-03-18T05:15:10.026Z,232.13
2023-03-18T05:17:40.171Z,232.20
2023-03-18T05:20:08.717Z,227.20
2023-03-18T05:22:35.720Z,224.50
2023-03-18T05:25:03.007Z,229.38
2023-03-18T05:27:30.121Z,227.95
2023-03-18T05:29:57.410Z,226.90
2023-03-18T05:32:24.772Z,220.00
2023-03-18T05:34:52.964Z,226.55
2023-03-18T05:37:19.999Z,224.05
2023-03-18T05:39:47.016Z,225.07
2023-03-18T05:42:14.257Z,217.40
2023-03-18T05:44:42.228Z,219.38
2023-03-18T05:47:09.976Z,217.10
2023-03-18T05:49:37.378Z,220.10
2023-03-18T05:52:05.155Z,214.10
2023-03-18T05:54:32.155Z,220.07
2023-03-18T05:56:59.638Z,222.10
2023-03-18T05:59:26.747Z,217.43
2023-03-18T06:01:54.575Z,220.35
2023-03-18T06:04:22.024Z,213.73
2023-03-18T06:07:40.190Z,223.48
2023-03-18T06:10:08.865Z,261.00
2023-03-18T06:12:36.003Z,263.73
2023-03-18T06:15:03.960Z,201.60
2023-03-18T06:17:32.470Z,209.82
2023-03-18T06:19:59.635Z,202.15
2023-03-18T06:22:26.759Z,215.48
2023-03-18T06:24:54.368Z,208.20
2023-03-18T06:27:21.415Z,221.05
2023-03-18T06:29:48.918Z,202.60
2023-03-18T06:32:16.108Z,206.00
2023-03-18T06:34:43.068Z,200.55
2023-03-18T06:37:10.859Z,204.15
2023-03-18T06:39:39.106Z,203.40
2023-03-18T06:42:07.811Z,213.90
2023-03-18T06:44:35.424Z,211.02
2023-03-18T06:47:02.948Z,207.80
2023-03-18T06:49:30.975Z,207.38
2023-03-18T06:51:57.926Z,209.15
2023-03-18T06:54:25.536Z,193.90
2023-03-18T06:56:52.993Z,200.32
2023-03-18T06:59:21.583Z,204.30
2023-03-18T07:01:49.529Z,198.25
2023-03-18T07:04:16.612Z,194.50
2023-03-18T07:06:43.645Z,202.73
2023-03-18T07:09:12.671Z,199.52
2023-03-18T07:11:39.667Z,199.38
2023-03-18T07:14:06.822Z,197.18
2023-03-18T07:16:34.004Z,202.02
2023-03-18T07:19:02.055Z,203.32
2023-03-18T07:21:29.450Z,203.52
2023-03-18T07:23:56.816Z,199.60
2023-03-18T07:26:24.223Z,198.98
2023-03-18T07:28:51.939Z,208.07
2023-03-18T07:31:19.161Z,207.75
2023-03-18T07:33:46.927Z,213.98
2023-03-18T07:36:14.270Z,208.57
2023-03-18T07:38:41.476Z,208.32
2023-03-18T07:41:08.512Z,221.95
2023-03-18T07:43:37.097Z,229.05
2023-03-18T07:46:04.656Z,227.45
2023-03-18T07:48:34.177Z,236.35
2023-03-18T07:51:02.301Z,249.98
2023-03-18T07:53:29.552Z,232.40
2023-03-18T07:55:57.187Z,227.48
2023-03-18T07:58:24.691Z,245.25
2023-03-18T08:00:53.280Z,242.07
2023-03-18T08:03:20.274Z,231.93
2023-03-18T08:05:47.293Z,235.15
2023-03-18T08:08:14.232Z,253.25
2023-03-18T08:10:41.195Z,255.80
2023-03-18T08:13:08.346Z,261.65
2023-03-18T08:15:35.537Z,289.77
2023-03-18T08:18:02.788Z,287.85
2023-03-18T08:20:29.776Z,286.05
2023-03-18T08:22:57.211Z,297.60
2023-03-18T08:25:24.856Z,306.75
2023-03-18T08:27:52.591Z,334.73
2023-03-18T08:30:19.869Z,329.00
2023-03-18T08:32:47.153Z,333.88
2023-03-18T08:35:14.564Z,340.27
2023-03-18T08:37:41.507Z,346.30
2023-03-18T08:40:09.971Z,360.13
2023-03-18T08:42:36.987Z,367.73
2023-03-18T08:45:04.930Z,384.25
2023-03-18T08:47:32.526Z,391.50
2023-03-18T08:49:59.517Z,409.75
2023-03-18T08:52:26.512Z,409.92
2023-03-18T08:54:53.452Z,415.98
2023-03-18T08:57:20.855Z,429.35
2023-03-18T08:59:48.203Z,454.50
2023-03-18T09:02:18.513Z,454.42
2023-03-18T09:04:46.049Z,476.45
2023-03-18T09:07:13.634Z,481.77
2023-03-18T09:09:44.057Z,490.95
2023-03-18T09:12:12.818Z,489.05
2023-03-18T09:14:40.848Z,500.52
2023-03-18T09:17:10.337Z,507.42
2023-03-18T09:19:37.557Z,509.98
2023-03-18T09:22:04.775Z,510.48
2023-03-18T09:24:32.006Z,523.70
2023-03-18T09:27:00.056Z,547.47
2023-03-18T09:29:27.827Z,544.22
2023-03-18T09:31:55.808Z,539.80
2023-03-18T09:34:22.912Z,536.17
2023-03-18T09:36:51.701Z,553.67
2023-03-18T09:39:22.351Z,555.47
2023-03-18T09:42:13.303Z,559.67
2023-03-18T09:44:41.024Z,557.60
2023-03-18T09:47:33.003Z,575.65
2023-03-18T09:50:29.288Z,579.72
2023-03-18T09:53:03.763Z,581.40
2023-03-18T09:55:49.888Z,592.88
2023-03-18T09:58:50.416Z,607.15
2023-03-18T10:01:18.798Z,621.30
2023-03-18T10:04:16.175Z,631.58
2023-03-18T10:06:45.942Z,634.33
2023-03-18T10:09:27.109Z,631.83
2023-03-18T10:12:33.018Z,642.40
2023-03-18T10:15:13.383Z,645.03
2023-03-18T10:17:47.156Z,656.75
2023-03-18T10:20:29.715Z,662.83
2023-03-18T10:23:36.387Z,672.88
2023-03-18T10:26:17.558Z,671.80
2023-03-18T10:28:49.443Z,671.10
2023-03-18T10:32:03.827Z,691.47
2023-03-18T10:34:51.290Z,692.55
2023-03-18T10:38:13.250Z,699.58
2023-03-18T10:40:42.802Z,695.00
2023-03-18T10:43:22.266Z,699.75
2023-03-18T10:46:00.066Z,720.45
2023-03-18T10:48:40.035Z,725.80
2023-03-18T10:51:53.454Z,737.78
2023-03-18T10:54:35.557Z,735.92
2023-03-18T10:57:02.957Z,742.33
2023-03-18T10:59:30.633Z,755.38
2023-03-18T11:02:05.782Z,774.15
2023-03-18T11:05:00.786Z,766.35
2023-03-18T11:07:28.817Z,775.40
2023-03-18T11:10:10.303Z,797.28
2023-03-18T11:12:37.670Z,805.08
2023-03-18T11:15:11.972Z,806.80
2023-03-18T11:17:40.799Z,804.08
2023-03-18T11:20:17.049Z,805.25
2023-03-18T11:22:55.667Z,812.35
2023-03-18T11:25:30.196Z,809.15
2023-03-18T11:28:06.386Z,818.97
2023-03-18T11:30:48.804Z,823.22
2023-03-18T11:33:17.909Z,826.83
2023-03-18T11:35:56.201Z,827.47
2023-03-18T11:38:33.113Z,823.83
2023-03-18T11:41:17.044Z,820.22
2023-03-18T11:44:08.575Z,826.00
2023-03-18T11:46:59.894Z,819.92
2023-03-18T11:49:28.817Z,819.63
2023-03-18T11:52:21.736Z,823.00
2023-03-18T11:55:22.736Z,821.10
2023-03-18T11:58:15.879Z,844.30
2023-03-18T12:01:17.573Z,849.05
2023-03-18T12:04:27.845Z,848.45
2023-03-18T12:07:58.123Z,849.70
2023-03-18T12:10:29.994Z,854.67
2023-03-18T12:13:29.858Z,857.75
2023-03-18T12:16:06.103Z,856.58
2023-03-18T12:19:05.292Z,848.20
2023-03-18T12:22:16.656Z,852.67
2023-03-18T12:25:30.780Z,843.55
2023-03-18T12:28:16.935Z,834.67
2023-03-18T12:31:00.036Z,851.75
2023-03-18T12:33:28.511Z,850.22
2023-03-18T12:36:10.350Z,842.50
2023-03-18T12:39:12.575Z,859.40
2023-03-18T12:42:08.273Z,851.80
2023-03-18T12:45:03.170Z,843.85
2023-03-18T12:47:37.373Z,869.55
2023-03-18T12:50:20.736Z,867.78
2023-03-18T12:53:17.078Z,834.13
2023-03-18T12:55:57.643Z,835.40
2023-03-18T12:59:03.840Z,839.72
2023-03-18T13:02:01.404Z,832.10
2023-03-18T13:04:33.641Z,827.72
2023-03-18T13:07:18.697Z,833.60
2023-03-18T13:10:02.568Z,826.08
2023-03-18T13:12:56.488Z,829.33
2023-03-18T13:15:34.147Z,839.30
2023-03-18T13:18:16.424Z,837.03
2023-03-18T13:20:45.066Z,846.05
2023-03-18T13:23:32.655Z,834.00
2023-03-18T13:26:43.510Z,843.70
2023-03-18T13:29:27.185Z,833.53
2023-03-18T13:32:24.979Z,845.35
2023-03-18T13:35:39.250Z,855.95
2023-03-18T13:38:11.856Z,845.80
2023-03-18T13:41:32.350Z,860.28
2023-03-18T13:44:15.735Z,854.92
2023-03-18T13:47:04.198Z,867.88
2023-03-18T13:49:34.818Z,868.72
2023-03-18T13:52:04.532Z,861.75
2023-03-18T13:54:41.367Z,869.47
2023-03-18T13:57:26.924Z,848.05
2023-03-18T14:00:31.283Z,836.28
2023-03-18T14:03:22.039Z,833.22
2023-03-18T14:06:08.601Z,827.03
2023-03-18T14:08:39.001Z,819.22
2023-03-18T14:11:19.825Z,828.05
2023-03-18T14:14:00.796Z,826.63
2023-03-18T14:16:53.022Z,831.97
2023-03-18T14:19:28.769Z,834.72
2023-03-18T14:22:08.431Z,851.58
2023-03-18T14:24:36.066Z,850.40
2023-03-18T14:27:06.693Z,859.95
2023-03-18T14:29:48.071Z,855.67
2023-03-18T14:32:33.297Z,861.83
2023-03-18T14:35:13.564Z,858.38
2023-03-18T14:38:15.618Z,861.75
2023-03-18T14:40:47.320Z,866.65
2023-03-18T14:43:25.769Z,872.20
2023-03-18T14:45:57.537Z,864.95
2023-03-18T14:48:30.505Z,873.20
2023-03-18T14:51:20.555Z,876.97
2023-03-18T14:53:53.919Z,865.65
2023-03-18T14:56:29.643Z,864.28
2023-03-18T14:58:57.131Z,863.17
2023-03-18T15:01:39.185Z,862.63
2023-03-18T15:04:15.826Z,856.33
2023-03-18T15:06:43.203Z,854.63
2023-03-18T15:09:19.381Z,852.08
2023-03-18T15:11:47.880Z,850.05
2023-03-18T15:14:27.345Z,847.88
2023-03-18T15:16:57.283Z,838.72
2023-03-18T15:19:24.918Z,830.33
2023-03-18T15:21:52.337Z,826.65
2023-03-18T15:24:24.788Z,826.55
2023-03-18T15:27:05.988Z,820.20
2023-03-18T15:29:49.064Z,815.13
2023-03-18T15:32:24.178Z,813.10
2023-03-18T15:35:12.137Z,810.30
2023-03-18T15:37:44.844Z,806.00
2023-03-18T15:40:24.722Z,815.70
2023-03-18T15:43:04.816Z,805.58
2023-03-18T15:45:34.223Z,811.38
2023-03-18T15:48:27.534Z,808.50
2023-03-18T15:51:01.020Z,800.28
2023-03-18T15:53:40.002Z,797.22
2023-03-18T15:56:32.184Z,798.65
2023-03-18T15:59:16.305Z,791.83
2023-03-18T16:01:44.081Z,789.95
2023-03-18T16:04:17.175Z,805.35
2023-03-18T16:06:44.883Z,795.63
2023-03-18T16:09:23.451Z,799.13
2023-03-18T16:11:55.829Z,784.10
2023-03-18T16:14:37.063Z,793.47
2023-03-18T16:17:04.442Z,785.92
2023-03-18T16:19:32.518Z,786.80
2023-03-18T16:22:00.478Z,786.83
2023-03-18T16:24:28.157Z,767.92
2023-03-18T16:26:56.957Z,771.10
2023-03-18T16:29:38.213Z,762.90
2023-03-18T16:32:06.433Z,764.53
2023-03-18T16:34:34.957Z,760.20
2023-03-18T16:37:06.217Z,772.00
2023-03-18T16:39:36.246Z,766.45
2023-03-18T16:42:06.699Z,769.47
2023-03-18T16:44:35.856Z,765.00
2023-03-18T16:47:03.410Z,768.38
2023-03-18T16:49:33.501Z,771.70
2023-03-18T16:52:03.827Z,764.45
2023-03-18T16:54:34.050Z,771.28
2023-03-18T16:57:04.493Z,755.30
2023-03-18T16:59:37.687Z,759.88
2023-03-18T17:02:05.871Z,763.75
2023-03-18T17:04:35.659Z,747.88
2023-03-18T17:07:05.501Z,755.33
2023-03-18T17:09:32.957Z,762.92
2023-03-18T17:12:07.798Z,752.03
2023-03-18T17:14:44.125Z,746.17
2023-03-18T17:17:35.874Z,749.40
2023-03-18T17:20:05.602Z,737.88
2023-03-18T17:22:35.166Z,737.42
2023-03-18T17:25:05.081Z,734.13
2023-03-18T17:27:45.914Z,724.13
2023-03-18T17:30:34.312Z,708.33
2023-03-18T17:33:02.803Z,704.25
2023-03-18T17:35:30.472Z,694.47
2023-03-18T17:37:58.173Z,693.65
2023-03-18T17:40:30.394Z,689.75
2023-03-18T17:42:57.868Z,683.10
2023-03-18T17:45:34.018Z,684.92
2023-03-18T17:48:21.992Z,669.97
2023-03-18T17:51:00.029Z,665.22
2023-03-18T17:53:46.061Z,659.55
2023-03-18T17:56:16.311Z,657.45
2023-03-18T17:58:48.631Z,658.20
2023-03-18T18:01:19.622Z,649.72
2023-03-18T18:03:47.844Z,638.58
2023-03-18T18:06:22.113Z,652.65
2023-03-18T18:08:50.078Z,635.47
2023-03-18T18:11:19.390Z,630.17
2023-03-18T18:13:47.541Z,629.85
2023-03-18T18:17:17.228Z,638.35
2023-03-18T18:19:44.971Z,599.30
2023-03-18T18:22:20.836Z,592.95
2023-03-18T18:24:48.964Z,599.38
2023-03-18T18:27:16.467Z,597.35
2023-03-18T18:29:49.207Z,593.45
2023-03-18T18:32:17.126Z,586.38
2023-03-18T18:34:45.185Z,582.45
2023-03-18T18:37:12.850Z,578.53
2023-03-18T18:39:41.532Z,569.10
2023-03-18T18:42:08.895Z,566.25
2023-03-18T18:44:36.700Z,568.58
2023-03-18T18:47:06.638Z,555.35
2023-03-18T18:49:34.393Z,539.70
2023-03-18T18:52:02.318Z,533.95
2023-03-18T18:54:29.402Z,533.05
2023-03-18T18:56:57.561Z,526.40
2023-03-18T18:59:31.967Z,525.78
2023-03-18T19:02:00.806Z,504.65
2023-03-18T19:04:27.818Z,504.48
2023-03-18T19:06:55.819Z,498.85
2023-03-18T19:09:26.137Z,492.70
2023-03-18T19:11:56.222Z,487.50
2023-03-18T19:14:26.559Z,479.55
2023-03-18T19:16:58.501Z,472.65
2023-03-18T19:19:29.281Z,461.20
2023-03-18T19:21:57.596Z,450.63
2023-03-18T19:24:27.637Z,451.80
2023-03-18T19:26:58.592Z,440.00
2023-03-18T19:29:26.664Z,431.70
2023-03-18T19:31:54.592Z,429.15
2023-03-18T19:34:22.230Z,432.75
2023-03-18T19:36:53.207Z,429.35
2023-03-18T19:39:22.541Z,423.38
2023-03-18T19:41:49.888Z,416.52
2023-03-18T19:44:24.295Z,410.60
2023-03-18T19:46:54.726Z,418.10
2023-03-18T19:49:36.725Z,410.02
2023-03-18T19:52:34.545Z,394.23
2023-03-18T19:55:08.338Z,387.48
2023-03-18T19:57:35.440Z,392.60
2023-03-18T20:00:08.917Z,394.30
2023-03-18T20:02:35.972Z,388.45
2023-03-18T20:05:16.551Z,387.67
2023-03-18T20:07:43.680Z,388.65
2023-03-18T20:10:12.338Z,382.60
2023-03-18T20:12:42.497Z,376.80
2023-03-18T20:15:22.896Z,374.65
2023-03-18T20:17:51.884Z,372.83
2023-03-18T20:20:25.471Z,373.55
2023-03-18T20:23:18.596Z,374.20
2023-03-18T20:25:47.325Z,350.88
2023-03-18T20:28:21.742Z,356.50
2023-03-18T20:30:52.596Z,359.08
2023-03-18T20:33:21.061Z,356.70
2023-03-18T20:35:51.173Z,355.23
2023-03-18T20:38:41.048Z,347.10
2023-03-18T20:41:08.363Z,350.52
2023-03-18T20:43:35.435Z,350.42
2023-03-18T20:46:02.786Z,337.23
2023-03-18T20:48:30.439Z,339.40
2023-03-18T20:50:58.394Z,337.90
2023-03-18T20:53:28.654Z,339.13
2023-03-18T20:55:56.451Z,324.90
2023-03-18T20:58:26.520Z,352.10
2023-03-18T21:00:54.690Z,340.90
2023-03-18T21:03:31.391Z,334.05
2023-03-18T21:06:01.662Z,347.40
2023-03-18T21:08:30.063Z,323.25
2023-03-18T21:11:01.674Z,322.15
2023-03-18T21:13:34.432Z,321.48
2023-03-18T21:16:02.493Z,316.20
2023-03-18T21:18:30.612Z,311.20
2023-03-18T21:20:58.196Z,317.75
2023-03-18T21:23:26.684Z,309.05
2023-03-18T21:25:54.492Z,313.60
2023-03-18T21:28:25.538Z,306.88
2023-03-18T21:30:56.197Z,309.52
2023-03-18T21:33:31.256Z,305.30
2023-03-18T21:35:58.960Z,302.10
2023-03-18T21:38:28.805Z,304.52
2023-03-18T21:40:57.012Z,306.27
2023-03-18T21:43:35.389Z,304.83
2023-03-18T21:46:05.926Z,294.95
2023-03-18T21:48:32.984Z,299.10
2023-03-18T21:51:00.031Z,294.60
2023-03-18T21:53:28.721Z,290.90
2023-03-18T21:55:56.259Z,290.98
2023-03-18T21:58:26.552Z,299.63
2023-03-18T22:00:59.070Z,287.67
2023-03-18T22:03:29.808Z,288.02
2023-03-18T22:05:57.641Z,280.60
2023-03-18T22:08:25.462Z,294.67
2023-03-18T22:10:53.025Z,291.58
2023-03-18T22:13:23.838Z,282.83
2023-03-18T22:15:53.169Z,285.65
2023-03-18T22:18:21.309Z,274.85
2023-03-18T22:20:51.256Z,263.48
2023-03-18T22:23:25.578Z,270.33
2023-03-18T22:25:55.700Z,263.55
2023-03-18T22:28:24.453Z,268.55
2023-03-18T22:30:55.063Z,254.85
2023-03-18T22:33:27.705Z,266.35
2023-03-18T22:35:55.753Z,261.95
2023-03-18T22:38:24.369Z,264.23
2023-03-18T22:40:56.794Z,253.80
2023-03-18T22:43:35.330Z,259.52
2023-03-18T22:46:09.279Z,246.68
2023-03-18T22:48:36.397Z,251.98
2023-03-18T22:51:04.849Z,252.43
2023-03-18T22:53:41.280Z,250.77
2023-03-18T22:56:14.519Z,246.57
2023-03-18T22:58:41.582Z,250.70
2023-03-18T23:01:14.829Z,255.85
2023-03-18T23:03:43.995Z,247.02
2023-03-18T23:06:17.332Z,248.45
2023-03-18T23:08:45.754Z,241.95
2023-03-18T23:11:13.732Z,256.10
2023-03-18T23:13:47.718Z,245.85
2023-03-18T23:16:21.148Z,243.98
2023-03-18T23:18:48.901Z,246.70
2023-03-18T23:21:25.747Z,257.55
2023-03-18T23:23:53.673Z,234.45
2023-03-18T23:26:21.705Z,246.48
2023-03-18T23:28:49.358Z,238.60
2023-03-18T23:31:17.456Z,244.27
2023-03-18T23:33:45.632Z,241.77
2023-03-18T23:36:12.848Z,237.55
2023-03-18T23:38:40.522Z,246.32
2023-03-18T23:41:08.262Z,241.90
2023-03-18T23:43:35.671Z,255.45
2023-03-18T23:46:03.805Z,247.02
2023-03-18T23:48:31.473Z,261.52
2023-03-18T23:50:58.683Z,251.73
2023-03-18T23:53:25.684Z,247.02
2023-03-18T23:55:52.629Z,256.40
2023-03-18T23:58:19.706Z,251.35
